createdAt,value
2022-10-15T00:00:09.765Z,98336.06
2022-10-15T00:02:36.308Z,98336.83
2022-10-15T00:05:03.259Z,98340.70
2022-10-15T00:07:30.384Z,98341.27
2022-10-15T00:09:57.157Z,98333.17
2022-10-15T00:12:23.601Z,98322.47
2022-10-15T00:14:50.035Z,98327.19
2022-10-15T00:17:16.542Z,98326.95
2022-10-15T00:19:42.988Z,98331.71
2022-10-15T00:22:09.551Z,98330.05
2022-10-15T00:24:37.014Z,98330.34
2022-10-15T00:27:03.755Z,98330.65
2022-10-15T00:29:30.195Z,98326.26
2022-10-15T00:31:56.737Z,98320.84
2022-10-15T00:34:23.165Z,98321.94
2022-10-15T00:36:50.948Z,98322.90
2022-10-15T00:39:17.797Z,98320.22
2022-10-15T00:41:45.464Z,98318.08
2022-10-15T00:44:21.021Z,98317.27
2022-10-15T00:47:15.528Z,98317.46
2022-10-15T00:49:48.976Z,98324.39
2022-10-15T00:52:44.752Z,98322.18
2022-10-15T00:55:17.536Z,98324.17
2022-10-15T00:57:47.071Z,98317.03
2022-10-15T01:00:14.930Z,98316.58
2022-10-15T01:02:42.846Z,98312.33
2022-10-15T01:05:09.748Z,98314.98
2022-10-15T01:07:36.399Z,98314.13
2022-10-15T01:10:06.188Z,98316.61
2022-10-15T01:12:35.673Z,98314.81
2022-10-15T01:15:19.546Z,98315.84
2022-10-15T01:17:59.536Z,98314.66
2022-10-15T01:20:44.806Z,98310.16
2022-10-15T01:23:49.147Z,98307.92
2022-10-15T01:26:30.072Z,98314.02
2022-10-15T01:29:21.650Z,98310.75
2022-10-15T01:32:20.035Z,98304.66
2022-10-15T01:35:20.943Z,98304.30
2022-10-15T01:37:57.767Z,98303.79
2022-10-15T01:40:31.682Z,98301.88
2022-10-15T01:43:00.137Z,98300.54
2022-10-15T01:45:35.003Z,98300.27
2022-10-15T01:48:11.405Z,98301.20
2022-10-15T01:50:44.271Z,98298.45
2022-10-15T01:53:13.637Z,98292.91
2022-10-15T01:55:44.951Z,98291.73
2022-10-15T01:58:13.094Z,98288.52
2022-10-15T02:00:41.937Z,98291.34
2022-10-15T02:03:08.646Z,98294.05
2022-10-15T02:05:41.101Z,98288.80
2022-10-15T02:08:35.150Z,98289.29
2022-10-15T02:11:08.914Z,98282.69
2022-10-15T02:14:03.362Z,98281.61
2022-10-15T02:16:41.323Z,98273.37
2022-10-15T02:19:25.994Z,98276.83
2022-10-15T02:22:16.204Z,98278.58
2022-10-15T02:25:09.811Z,98279.09
2022-10-15T02:27:38.052Z,98276.56
2022-10-15T02:30:08.576Z,98276.83
2022-10-15T02:32:38.683Z,98273.27
2022-10-15T02:35:07.835Z,98269.75
2022-10-15T02:37:35.679Z,98262.23
2022-10-15T02:40:02.375Z,98261.67
2022-10-15T02:42:29.269Z,98264.09
2022-10-15T02:44:55.830Z,98263.90
2022-10-15T02:47:22.534Z,98261.64
2022-10-15T02:49:49.102Z,98261.27
2022-10-15T02:52:15.740Z,98254.83
2022-10-15T02:54:42.380Z,98257.08
2022-10-15T02:57:08.830Z,98251.59
2022-10-15T02:59:35.285Z,98250.20
2022-10-15T03:02:01.809Z,98249.05
2022-10-15T03:04:28.445Z,98249.71
2022-10-15T03:06:55.084Z,98246.65
2022-10-15T03:09:21.574Z,98247.13
2022-10-15T03:11:48.070Z,98250.91
2022-10-15T03:14:14.713Z,98249.48
2022-10-15T03:16:41.461Z,98249.88
2022-10-15T03:19:07.943Z,98248.86
2022-10-15T03:21:34.537Z,98249.52
2022-10-15T03:24:01.086Z,98246.39
2022-10-15T03:26:27.607Z,98244.96
2022-10-15T03:28:54.048Z,98245.82
2022-10-15T03:31:20.814Z,98246.16
2022-10-15T03:33:47.367Z,98242.33
2022-10-15T03:36:14.092Z,98244.42
2022-10-15T03:38:40.637Z,98237.52
2022-10-15T03:41:07.255Z,98238.86
2022-10-15T03:43:36.281Z,98236.98
2022-10-15T03:46:05.910Z,98231.98
2022-10-15T03:48:32.475Z,98227.17
2022-10-15T03:50:58.900Z,98221.14
2022-10-15T03:53:25.829Z,98222.05
2022-10-15T03:55:52.621Z,98223.33
2022-10-15T03:58:19.147Z,98221.31
2022-10-15T04:00:45.792Z,98219.67
2022-10-15T04:03:12.555Z,98217.34
2022-10-15T04:05:39.047Z,98213.35
2022-10-15T04:08:06.288Z,98214.95
2022-10-15T04:10:32.919Z,98216.77
2022-10-15T04:12:59.480Z,98221.93
2022-10-15T04:15:26.122Z,98222.95
2022-10-15T04:17:55.429Z,98223.41
2022-10-15T04:20:22.003Z,98225.14
2022-10-15T04:22:48.615Z,98227.02
2022-10-15T04:25:15.358Z,98223.70
2022-10-15T04:27:41.763Z,98218.27
2022-10-15T04:30:09.137Z,98213.55
2022-10-15T04:32:35.717Z,98212.70
2022-10-15T04:35:02.239Z,98215.67
2022-10-15T04:37:28.780Z,98217.80
2022-10-15T04:39:55.424Z,98214.59
2022-10-15T04:42:21.970Z,98214.11
2022-10-15T04:44:48.612Z,98213.69
2022-10-15T04:47:15.148Z,98216.97
2022-10-15T04:49:41.690Z,98214.53
2022-10-15T04:52:08.227Z,98218.48
2022-10-15T04:54:34.767Z,98217.15
2022-10-15T04:57:01.305Z,98218.54
2022-10-15T04:59:27.950Z,98216.16
2022-10-15T05:01:54.521Z,98212.50
2022-10-15T05:04:21.028Z,98211.96
2022-10-15T05:06:47.672Z,98211.13
2022-10-15T05:09:14.545Z,98212.79
2022-10-15T05:11:40.964Z,98214.59
2022-10-15T05:14:08.096Z,98211.05
2022-10-15T05:16:34.562Z,98211.48
2022-10-15T05:19:07.557Z,98216.26
2022-10-15T05:21:35.316Z,98213.04
2022-10-15T05:24:02.250Z,98218.61
2022-10-15T05:26:29.824Z,98217.10
2022-10-15T05:28:58.130Z,98219.67
2022-10-15T05:31:27.006Z,98218.73
2022-10-15T05:33:54.565Z,98214.52
2022-10-15T05:36:27.412Z,98214.86
2022-10-15T05:38:58.910Z,98215.52
2022-10-15T05:41:26.168Z,98207.88
2022-10-15T05:43:55.247Z,98210.40
2022-10-15T05:46:22.117Z,98210.38
2022-10-15T05:48:49.685Z,98212.13
2022-10-15T05:51:16.528Z,98214.65
2022-10-15T05:53:43.281Z,98213.08
2022-10-15T05:56:10.271Z,98212.26
2022-10-15T05:58:37.787Z,98208.67
2022-10-15T06:01:06.902Z,98205.50
2022-10-15T06:03:33.638Z,98208.40
2022-10-15T06:06:00.143Z,98213.20
2022-10-15T06:08:28.969Z,98213.91
2022-10-15T06:10:55.713Z,98223.98
2022-10-15T06:13:22.623Z,98223.39
2022-10-15T06:15:49.306Z,98220.30
2022-10-15T06:18:15.748Z,98227.67
2022-10-15T06:20:43.597Z,98234.81
2022-10-15T06:23:11.583Z,98230.50
2022-10-15T06:25:38.025Z,98229.63
2022-10-15T06:28:06.467Z,98233.23
2022-10-15T06:30:33.153Z,98232.55
2022-10-15T06:32:59.804Z,98234.27
2022-10-15T06:35:27.510Z,98231.98
2022-10-15T06:37:57.116Z,98232.64
2022-10-15T06:40:25.685Z,98232.29
2022-10-15T06:42:52.212Z,98232.81
2022-10-15T06:45:21.023Z,98229.63
2022-10-15T06:47:48.867Z,98228.41
2022-10-15T06:50:15.509Z,98232.36
2022-10-15T06:52:42.074Z,98232.33
2022-10-15T06:55:09.303Z,98236.92
2022-10-15T06:57:35.763Z,98235.48
2022-10-15T07:00:02.269Z,98238.41
2022-10-15T07:02:28.721Z,98232.94
2022-10-15T07:04:55.188Z,98231.79
2022-10-15T07:07:21.618Z,98229.36
2022-10-15T07:09:48.036Z,98230.84
2022-10-15T07:12:14.496Z,98231.98
2022-10-15T07:14:42.461Z,98239.75
2022-10-15T07:17:09.187Z,98246.11
2022-10-15T07:19:35.741Z,98246.00
2022-10-15T07:22:02.163Z,98242.23
2022-10-15T07:24:28.719Z,98244.27
2022-10-15T07:26:55.265Z,98244.67
2022-10-15T07:29:21.704Z,98240.94
2022-10-15T07:31:48.247Z,98240.27
2022-10-15T07:34:14.777Z,98240.05
2022-10-15T07:36:41.316Z,98240.80
2022-10-15T07:39:09.498Z,98238.02
2022-10-15T07:41:36.241Z,98237.23
2022-10-15T07:44:03.090Z,98237.20
2022-10-15T07:46:29.626Z,98231.16
2022-10-15T07:48:56.375Z,98225.67
2022-10-15T07:51:23.122Z,98218.66
2022-10-15T07:53:49.560Z,98219.20
2022-10-15T07:56:16.566Z,98219.92
2022-10-15T07:58:43.765Z,98217.71
2022-10-15T08:01:11.289Z,98222.05
2022-10-15T08:03:38.283Z,98225.38
2022-10-15T08:06:07.381Z,98229.62
2022-10-15T08:08:35.203Z,98232.77
2022-10-15T08:11:28.004Z,98237.30
2022-10-15T08:13:54.443Z,98241.45
2022-10-15T08:16:20.890Z,98237.22
2022-10-15T08:18:47.404Z,98238.35
2022-10-15T08:21:14.170Z,98234.30
2022-10-15T08:23:40.739Z,98230.52
2022-10-15T08:26:08.911Z,98232.80
2022-10-15T08:28:35.755Z,98230.09
2022-10-15T08:31:05.538Z,98228.81
2022-10-15T08:33:34.496Z,98229.85
2022-10-15T08:36:01.397Z,98229.38
2022-10-15T08:38:29.936Z,98229.69
2022-10-15T08:40:59.323Z,98229.44
2022-10-15T08:43:35.254Z,98231.59
2022-10-15T08:46:06.333Z,98232.63
2022-10-15T08:48:49.990Z,98231.97
2022-10-15T08:51:22.689Z,98230.20
2022-10-15T08:53:53.161Z,98229.31
2022-10-15T08:56:30.407Z,98234.45
2022-10-15T08:59:07.553Z,98232.77
2022-10-15T09:01:43.102Z,98231.50
2022-10-15T09:04:34.435Z,98233.21
2022-10-15T09:07:27.595Z,98234.74
2022-10-15T09:10:01.409Z,98239.90
2022-10-15T09:12:52.624Z,98238.83
2022-10-15T09:15:23.973Z,98241.30
2022-10-15T09:17:55.791Z,98244.73
2022-10-15T09:20:31.194Z,98243.26
2022-10-15T09:22:57.836Z,98241.84
2022-10-15T09:25:31.235Z,98240.20
2022-10-15T09:28:09.152Z,98235.52
2022-10-15T09:30:52.788Z,98237.17
2022-10-15T09:33:36.226Z,98236.16
2022-10-15T09:36:05.430Z,98239.63
2022-10-15T09:38:47.435Z,98235.68
2022-10-15T09:41:42.575Z,98240.25
2022-10-15T09:44:12.472Z,98242.89
2022-10-15T09:46:47.421Z,98245.76
2022-10-15T09:49:31.254Z,98242.41
2022-10-15T09:52:29.243Z,98247.01
2022-10-15T09:55:03.352Z,98244.10
2022-10-15T09:57:33.073Z,98241.95
2022-10-15T10:00:02.018Z,98241.43
2022-10-15T10:02:30.101Z,98234.27
2022-10-15T10:04:56.949Z,98232.55
2022-10-15T10:07:38.124Z,98235.02
2022-10-15T10:10:21.727Z,98227.42
2022-10-15T10:12:48.415Z,98226.21
2022-10-15T10:15:35.678Z,98226.30
2022-10-15T10:18:05.314Z,98222.48
2022-10-15T10:20:34.002Z,98227.30
2022-10-15T10:23:02.797Z,98226.08
2022-10-15T10:25:29.240Z,98223.29
2022-10-15T10:28:04.862Z,98226.93
2022-10-15T10:30:43.891Z,98225.21
2022-10-15T10:33:14.767Z,98224.89
2022-10-15T10:35:47.185Z,98222.64
2022-10-15T10:38:25.362Z,98224.75
2022-10-15T10:40:54.556Z,98223.27
2022-10-15T10:43:29.195Z,98227.90
2022-10-15T10:46:02.127Z,98225.13
2022-10-15T10:48:39.266Z,98225.93
2022-10-15T10:51:19.592Z,98222.98
2022-10-15T10:54:03.677Z,98220.77
2022-10-15T10:56:31.446Z,98215.98
2022-10-15T10:59:15.302Z,98220.58
2022-10-15T11:01:42.381Z,98211.70
2022-10-15T11:04:18.599Z,98212.75
2022-10-15T11:07:14.437Z,98214.50
2022-10-15T11:10:09.040Z,98213.90
2022-10-15T11:12:59.329Z,98212.30
2022-10-15T11:15:51.687Z,98220.02
2022-10-15T11:18:48.745Z,98219.09
2022-10-15T11:21:31.257Z,98215.73
2022-10-15T11:24:48.317Z,98218.52
2022-10-15T11:27:33.878Z,98225.04
2022-10-15T11:30:23.356Z,98215.99
2022-10-15T11:33:23.194Z,98217.61
2022-10-15T11:36:15.526Z,98218.63
2022-10-15T11:38:59.318Z,98222.67
2022-10-15T11:41:50.338Z,98223.86
2022-10-15T11:44:32.493Z,98226.52
2022-10-15T11:47:30.388Z,98226.21
2022-10-15T11:50:11.653Z,98215.77
2022-10-15T11:53:16.034Z,98215.59
2022-10-15T11:55:58.004Z,98215.89
2022-10-15T11:58:33.233Z,98214.09
2022-10-15T12:01:12.683Z,98211.21
2022-10-15T12:03:53.902Z,98206.58
2022-10-15T12:06:25.012Z,98207.79
2022-10-15T12:08:53.876Z,98205.19
2022-10-15T12:12:00.751Z,98208.11
2022-10-15T12:14:50.268Z,98205.32
2022-10-15T12:17:30.940Z,98206.75
2022-10-15T12:20:07.061Z,98203.60
2022-10-15T12:22:41.225Z,98205.82
2022-10-15T12:25:33.807Z,98198.38
2022-10-15T12:28:23.976Z,98201.80
2022-10-15T12:30:54.828Z,98198.52
2022-10-15T12:33:47.560Z,98194.98
2022-10-15T12:36:31.099Z,98198.02
2022-10-15T12:39:07.843Z,98197.48
2022-10-15T12:41:46.300Z,98196.05
2022-10-15T12:46:59.933Z,98192.55
2022-10-15T12:49:26.501Z,98192.46
2022-10-15T12:51:57.549Z,98189.23
2022-10-15T12:54:44.270Z,98198.50
2022-10-15T12:57:32.616Z,98194.67
2022-10-15T13:00:01.514Z,98198.39
2022-10-15T13:02:45.504Z,98196.23
2022-10-15T13:05:39.440Z,98195.40
2022-10-15T13:08:15.127Z,98194.63
2022-10-15T13:10:49.829Z,98197.04
2022-10-15T13:13:29.388Z,98201.52
2022-10-15T13:16:07.690Z,98199.78
2022-10-15T13:18:34.849Z,98190.92
2022-10-15T13:23:33.793Z,98189.94
2022-10-15T13:26:26.945Z,98192.11
2022-10-15T13:28:57.761Z,98185.98
2022-10-15T13:31:36.710Z,98180.60
2022-10-15T13:34:31.612Z,98183.67
2022-10-15T13:37:02.152Z,98178.71
2022-10-15T13:39:37.294Z,98174.52
2022-10-15T13:42:09.251Z,98169.27
2022-10-15T13:44:36.418Z,98168.56
2022-10-15T13:47:03.670Z,98175.38
2022-10-15T13:49:30.310Z,98168.30
2022-10-15T13:51:56.956Z,98174.19
2022-10-15T13:54:28.727Z,98175.39
2022-10-15T13:57:00.790Z,98168.69
2022-10-15T13:59:30.824Z,98176.15
2022-10-15T14:01:59.813Z,98179.19
2022-10-15T14:04:28.531Z,98170.09
2022-10-15T14:07:02.820Z,98181.95
2022-10-15T14:09:33.284Z,98181.59
2022-10-15T14:12:02.319Z,98177.27
2022-10-15T14:14:40.568Z,98178.42
2022-10-15T14:17:10.194Z,98188.19
2022-10-15T14:19:39.078Z,98194.09
2022-10-15T14:22:06.248Z,98194.88
2022-10-15T14:24:39.635Z,98199.70
2022-10-15T14:27:17.649Z,98202.18
2022-10-15T14:29:45.830Z,98198.94
2022-10-15T14:32:24.044Z,98203.66
2022-10-15T14:34:52.851Z,98200.33
2022-10-15T14:37:37.837Z,98205.37
2022-10-15T14:40:10.700Z,98204.53
2022-10-15T14:43:01.309Z,98209.10
2022-10-15T14:45:30.310Z,98207.08
2022-10-15T14:47:59.625Z,98210.86
2022-10-15T14:50:34.961Z,98212.58
2022-10-15T14:53:07.987Z,98214.05
2022-10-15T14:55:38.766Z,98217.85
2022-10-15T14:58:16.291Z,98215.75
2022-10-15T15:00:45.296Z,98213.91
2022-10-15T15:03:22.414Z,98217.13
2022-10-15T15:05:52.057Z,98218.14
2022-10-15T15:08:19.164Z,98219.63
2022-10-15T15:13:21.053Z,98215.39
2022-10-15T15:15:47.573Z,98229.80
2022-10-15T15:18:14.423Z,98230.63
2022-10-15T15:20:42.203Z,98231.91
2022-10-15T15:23:14.677Z,98231.02
2022-10-15T15:25:41.928Z,98228.77
2022-10-15T15:28:17.476Z,98226.39
2022-10-15T15:30:45.122Z,98222.59
2022-10-15T15:33:13.949Z,98225.02
2022-10-15T15:35:48.675Z,98224.58
2022-10-15T15:38:15.103Z,98226.69
2022-10-15T15:40:41.535Z,98234.96
2022-10-15T15:43:09.371Z,98240.57
2022-10-15T15:45:35.862Z,98245.02
2022-10-15T15:48:02.317Z,98247.11
2022-10-15T15:50:29.362Z,98248.95
2022-10-15T15:52:55.794Z,98241.16
2022-10-15T15:55:23.061Z,98248.35
2022-10-15T15:57:49.600Z,98252.52
2022-10-15T16:00:16.554Z,98254.47
2022-10-15T16:02:43.503Z,98257.64
2022-10-15T16:05:13.579Z,98259.86
2022-10-15T16:07:40.068Z,98266.85
2022-10-15T16:10:07.344Z,98264.91
2022-10-15T16:12:33.868Z,98266.84
2022-10-15T16:15:01.019Z,98270.58
2022-10-15T16:17:27.759Z,98274.86
2022-10-15T16:19:54.507Z,98275.75
2022-10-15T16:22:20.952Z,98280.73
2022-10-15T16:24:47.465Z,98280.44
2022-10-15T16:27:13.896Z,98277.61
2022-10-15T16:29:40.477Z,98274.63
2022-10-15T16:32:06.952Z,98275.04
2022-10-15T16:34:33.566Z,98270.96
2022-10-15T16:37:00.037Z,98267.60
2022-10-15T16:39:26.464Z,98261.44
2022-10-15T16:41:52.984Z,98259.52
2022-10-15T16:44:19.522Z,98261.39
2022-10-15T16:46:46.070Z,98263.48
2022-10-15T16:49:12.552Z,98268.98
2022-10-15T16:51:41.349Z,98268.40
2022-10-15T16:54:14.545Z,98269.79
2022-10-15T16:56:41.440Z,98273.99
2022-10-15T16:59:07.955Z,98276.02
2022-10-15T17:01:34.557Z,98286.45
2022-10-15T17:04:01.271Z,98287.63
2022-10-15T17:06:29.855Z,98298.19
2022-10-15T17:09:01.334Z,98307.38
2022-10-15T17:11:29.285Z,98316.93
2022-10-15T17:13:58.816Z,98319.67
2022-10-15T17:16:31.068Z,98319.42
2022-10-15T17:18:58.171Z,98321.91
2022-10-15T17:21:27.430Z,98322.11
2022-10-15T17:23:56.798Z,98320.65
2022-10-15T17:26:26.961Z,98322.67
2022-10-15T17:28:54.554Z,98325.39
2022-10-15T17:31:24.079Z,98327.05
2022-10-15T17:33:58.357Z,98332.56
2022-10-15T17:36:26.439Z,98338.35
2022-10-15T17:38:56.360Z,98338.53
2022-10-15T17:41:24.584Z,98342.22
2022-10-15T17:43:52.196Z,98338.31
2022-10-15T17:46:21.411Z,98338.43
2022-10-15T17:48:49.191Z,98338.27
2022-10-15T17:51:18.424Z,98338.39
2022-10-15T17:53:45.458Z,98345.25
2022-10-15T17:56:15.264Z,98343.23
2022-10-15T17:58:42.183Z,98348.77
2022-10-15T18:01:13.536Z,98351.58
2022-10-15T18:03:40.071Z,98351.59
2022-10-15T18:06:08.354Z,98355.09
2022-10-15T18:08:34.790Z,98358.98
2022-10-15T18:11:01.934Z,98357.66
2022-10-15T18:13:28.584Z,98354.63
2022-10-15T18:15:55.844Z,98351.61
2022-10-15T18:18:22.595Z,98350.73
2022-10-15T18:20:49.844Z,98357.83
2022-10-15T18:23:16.322Z,98362.80
2022-10-15T18:25:42.789Z,98361.48
2022-10-15T18:28:09.768Z,98366.03
2022-10-15T18:30:37.950Z,98366.95
2022-10-15T18:33:05.100Z,98363.98
2022-10-15T18:35:35.533Z,98368.85
2022-10-15T18:38:02.273Z,98371.08
2022-10-15T18:40:33.589Z,98368.64
2022-10-15T18:43:03.467Z,98375.23
2022-10-15T18:45:31.078Z,98375.61
2022-10-15T18:47:57.656Z,98379.55
2022-10-15T18:50:24.399Z,98384.08
2022-10-15T18:52:50.867Z,98388.23
2022-10-15T18:55:18.153Z,98384.86
2022-10-15T18:57:44.743Z,98383.45
2022-10-15T19:00:12.839Z,98384.62
2022-10-15T19:02:39.465Z,98382.79
2022-10-15T19:05:06.627Z,98381.95
2022-10-15T19:07:33.575Z,98383.05
2022-10-15T19:10:00.113Z,98386.44
2022-10-15T19:12:27.227Z,98383.81
2022-10-15T19:14:53.883Z,98380.33
2022-10-15T19:17:20.326Z,98383.05
2022-10-15T19:19:46.892Z,98386.69
2022-10-15T19:22:13.426Z,98389.77
2022-10-15T19:24:39.865Z,98391.19
2022-10-15T19:27:06.437Z,98391.93
2022-10-15T19:29:35.146Z,98398.09
2022-10-15T19:32:02.244Z,98395.55
2022-10-15T19:34:28.807Z,98392.36
2022-10-15T19:36:55.373Z,98393.00
2022-10-15T19:39:23.631Z,98399.05
2022-10-15T19:41:51.477Z,98404.52
2022-10-15T19:44:19.658Z,98405.55
2022-10-15T19:46:46.303Z,98409.05
2022-10-15T19:49:13.594Z,98410.14
2022-10-15T19:51:40.506Z,98409.42
2022-10-15T19:54:07.152Z,98410.17
2022-10-15T19:56:33.940Z,98408.67
2022-10-15T19:59:04.255Z,98413.61
2022-10-15T20:01:31.633Z,98418.69
2022-10-15T20:04:03.130Z,98426.90
2022-10-15T20:06:33.779Z,98427.94
2022-10-15T20:09:00.250Z,98430.00
2022-10-15T20:11:26.755Z,98428.43
2022-10-15T20:13:53.397Z,98427.02
2022-10-15T20:16:23.007Z,98427.40
2022-10-15T20:18:50.673Z,98428.13
2022-10-15T20:21:17.972Z,98426.85
2022-10-15T20:23:45.497Z,98430.54
2022-10-15T20:26:14.297Z,98429.40
2022-10-15T20:28:42.836Z,98424.25
2022-10-15T20:31:15.876Z,98423.48
2022-10-15T20:33:43.542Z,98429.67
2022-10-15T20:36:14.864Z,98435.81
2022-10-15T20:38:43.278Z,98439.26
2022-10-15T20:41:15.445Z,98440.73
2022-10-15T20:43:43.322Z,98438.84
2022-10-15T20:46:16.828Z,98440.58
2022-10-15T20:48:45.030Z,98446.01
2022-10-15T20:51:15.444Z,98448.51
2022-10-15T20:53:42.830Z,98448.83
2022-10-15T20:56:09.437Z,98455.34
2022-10-15T20:58:35.983Z,98456.67
2022-10-15T21:01:02.866Z,98458.02
2022-10-15T21:03:29.467Z,98456.73
2022-10-15T21:05:55.904Z,98452.20
2022-10-15T21:08:24.287Z,98451.27
2022-10-15T21:10:50.845Z,98452.60
2022-10-15T21:13:17.377Z,98457.37
2022-10-15T21:15:43.809Z,98462.70
2022-10-15T21:18:10.440Z,98460.11
2022-10-15T21:20:36.886Z,98458.74
2022-10-15T21:23:03.375Z,98460.84
2022-10-15T21:25:30.016Z,98467.21
2022-10-15T21:27:56.606Z,98465.41
2022-10-15T21:30:23.146Z,98463.80
2022-10-15T21:32:49.579Z,98463.48
2022-10-15T21:35:16.027Z,98462.48
2022-10-15T21:37:42.445Z,98466.94
2022-10-15T21:40:09.911Z,98463.61
2022-10-15T21:42:36.391Z,98466.35
2022-10-15T21:45:03.424Z,98467.02
2022-10-15T21:47:32.006Z,98465.61
2022-10-15T21:49:58.439Z,98467.74
2022-10-15T21:52:25.083Z,98468.76
2022-10-15T21:54:51.729Z,98472.59
2022-10-15T21:57:18.270Z,98472.83
2022-10-15T21:59:44.704Z,98479.26
2022-10-15T22:02:11.239Z,98477.67
2022-10-15T22:04:37.884Z,98479.19
2022-10-15T22:07:04.539Z,98473.74
2022-10-15T22:09:31.018Z,98473.88
2022-10-15T22:11:57.508Z,98472.84
2022-10-15T22:14:23.979Z,98478.08
2022-10-15T22:16:50.486Z,98479.15
2022-10-15T22:19:17.226Z,98472.55
2022-10-15T22:21:44.592Z,98474.20
2022-10-15T22:24:14.243Z,98481.08
2022-10-15T22:26:43.857Z,98485.44
2022-10-15T22:29:25.966Z,98489.02
2022-10-15T22:31:53.791Z,98486.93
2022-10-15T22:34:21.697Z,98487.75
2022-10-15T22:36:48.558Z,98482.65
2022-10-15T22:39:17.109Z,98488.50
2022-10-15T22:41:45.487Z,98495.06
2022-10-15T22:44:20.933Z,98497.89
2022-10-15T22:46:47.982Z,98498.61
2022-10-15T22:49:15.662Z,98501.42
2022-10-15T22:51:42.597Z,98501.85
2022-10-15T22:54:09.764Z,98506.94
2022-10-15T22:56:36.246Z,98511.02
2022-10-15T22:59:03.478Z,98512.21
2022-10-15T23:01:32.177Z,98518.34
2022-10-15T23:04:01.230Z,98521.59
2022-10-15T23:06:28.682Z,98517.69
2022-10-15T23:08:55.920Z,98519.25
2022-10-15T23:11:26.428Z,98517.35
2022-10-15T23:13:56.997Z,98521.55
2022-10-15T23:16:27.044Z,98524.61
2022-10-15T23:18:58.602Z,98527.38
2022-10-15T23:21:32.877Z,98525.02
2022-10-15T23:24:00.493Z,98526.90
2022-10-15T23:28:58.072Z,98525.21
2022-10-15T23:31:27.179Z,98526.96
2022-10-15T23:33:55.498Z,98531.66
2022-10-15T23:36:23.362Z,98531.67
2022-10-15T23:39:01.963Z,98532.78
2022-10-15T23:41:29.845Z,98532.59
2022-10-15T23:43:57.006Z,98529.76
2022-10-15T23:46:26.047Z,98532.08
2022-10-15T23:48:52.735Z,98532.80
2022-10-15T23:51:25.892Z,98538.36
2022-10-15T23:53:53.947Z,98540.98
2022-10-15T23:56:21.563Z,98538.38
2022-10-15T23:58:53.261Z,98539.23
